createdAt,value
2023-05-30T00:00:01.466Z,19.50
2023-05-30T00:02:29.652Z,21.90
2023-05-30T00:04:58.256Z,25.63
2023-05-30T00:07:26.480Z,15.80
2023-05-30T00:09:55.914Z,21.27
2023-05-30T00:12:24.588Z,15.18
2023-05-30T00:14:52.867Z,15.45
2023-05-30T00:17:21.793Z,18.30
2023-05-30T00:19:50.209Z,21.52
2023-05-30T00:22:20.408Z,17.33
2023-05-30T00:24:49.139Z,16.65
2023-05-30T00:27:18.901Z,20.73
2023-05-30T00:29:47.274Z,22.98
2023-05-30T00:32:33.952Z,20.13
2023-05-30T00:35:04.508Z,20.27
2023-05-30T00:37:35.038Z,22.85
2023-05-30T00:40:03.150Z,19.35
2023-05-30T00:42:32.941Z,20.35
2023-05-30T00:45:00.982Z,20.73
2023-05-30T00:47:29.418Z,13.68
2023-05-30T00:49:57.899Z,21.98
2023-05-30T00:52:26.227Z,20.00
2023-05-30T00:54:55.358Z,16.67
2023-05-30T00:57:26.221Z,19.52
2023-05-30T00:59:55.981Z,19.40
2023-05-30T01:02:24.864Z,12.80
2023-05-30T01:04:53.302Z,18.30
2023-05-30T01:07:21.819Z,25.92
2023-05-30T01:09:50.175Z,15.60
2023-05-30T01:12:24.656Z,15.65
2023-05-30T01:14:59.904Z,19.65
2023-05-30T01:17:35.710Z,13.88
2023-05-30T01:20:08.534Z,15.35
2023-05-30T01:22:51.836Z,20.13
2023-05-30T01:25:28.779Z,16.17
2023-05-30T01:28:11.084Z,15.15
2023-05-30T01:30:43.386Z,17.75
2023-05-30T01:33:12.031Z,13.10
2023-05-30T01:35:40.601Z,17.23
2023-05-30T01:38:08.658Z,21.55
2023-05-30T01:40:38.198Z,15.82
2023-05-30T01:43:16.540Z,18.02
2023-05-30T01:45:53.172Z,19.10
2023-05-30T01:48:37.225Z,13.63
2023-05-30T01:51:13.508Z,13.23
2023-05-30T01:53:49.066Z,14.85
2023-05-30T01:56:18.073Z,20.00
2023-05-30T01:58:51.145Z,17.77
2023-05-30T02:01:20.960Z,16.20
2023-05-30T02:03:49.302Z,15.13
2023-05-30T02:06:17.615Z,18.10
2023-05-30T02:08:49.811Z,20.88
2023-05-30T02:11:18.643Z,12.27
2023-05-30T02:13:48.612Z,15.38
2023-05-30T02:16:19.767Z,11.43
2023-05-30T02:18:47.971Z,16.67
2023-05-30T02:21:16.127Z,14.23
2023-05-30T02:23:44.930Z,10.90
2023-05-30T02:26:13.038Z,9.45
2023-05-30T02:28:41.387Z,20.38
2023-05-30T02:31:10.808Z,11.70
2023-05-30T02:33:40.869Z,16.83
2023-05-30T02:36:10.153Z,20.48
2023-05-30T02:38:38.322Z,10.45
2023-05-30T02:41:06.641Z,12.43
2023-05-30T02:43:35.097Z,13.05
2023-05-30T02:46:05.354Z,8.27
2023-05-30T02:48:37.265Z,12.82
2023-05-30T02:51:05.710Z,11.15
2023-05-30T02:53:33.927Z,16.58
2023-05-30T02:56:02.371Z,14.27
2023-05-30T02:58:52.896Z,35.90
2023-05-30T03:01:47.572Z,22.73
2023-05-30T03:04:17.231Z,12.45
2023-05-30T03:06:50.908Z,16.45
2023-05-30T03:09:28.141Z,13.30
2023-05-30T03:11:56.490Z,13.43
2023-05-30T03:14:24.732Z,18.02
2023-05-30T03:16:52.899Z,18.95
2023-05-30T03:19:22.347Z,14.88
2023-05-30T03:21:53.743Z,12.18
2023-05-30T03:24:22.176Z,15.15
2023-05-30T03:26:51.112Z,19.50
2023-05-30T03:29:19.468Z,13.38
2023-05-30T03:31:48.356Z,23.45
2023-05-30T03:34:16.525Z,19.05
2023-05-30T03:36:48.309Z,13.93
2023-05-30T03:39:16.466Z,24.65
2023-05-30T03:41:44.644Z,30.08
2023-05-30T03:44:13.451Z,23.52
2023-05-30T03:46:42.030Z,15.18
2023-05-30T03:49:10.243Z,12.20
2023-05-30T03:51:38.365Z,13.93
2023-05-30T03:54:10.801Z,14.77
2023-05-30T03:56:38.862Z,13.48
2023-05-30T03:59:09.975Z,12.27
2023-05-30T04:01:38.499Z,13.27
2023-05-30T04:04:06.613Z,12.23
2023-05-30T04:06:35.718Z,15.60
2023-05-30T04:09:04.739Z,17.13
2023-05-30T04:11:34.497Z,10.77
2023-05-30T04:14:03.658Z,16.77
2023-05-30T04:16:32.093Z,10.25
2023-05-30T04:19:00.369Z,15.82
2023-05-30T04:21:29.134Z,24.10
2023-05-30T04:24:00.266Z,25.98
2023-05-30T04:26:28.854Z,23.35
2023-05-30T04:28:58.988Z,21.25
2023-05-30T04:31:27.712Z,16.77
2023-05-30T04:33:56.916Z,12.85
2023-05-30T04:36:26.320Z,15.90
2023-05-30T04:38:54.881Z,15.68
2023-05-30T04:41:27.304Z,17.58
2023-05-30T04:44:01.339Z,13.18
2023-05-30T04:46:30.533Z,13.02
2023-05-30T04:49:02.110Z,12.32
2023-05-30T04:51:31.481Z,14.85
2023-05-30T04:54:00.145Z,13.82
2023-05-30T04:56:28.815Z,12.57
2023-05-30T04:58:56.905Z,23.92
2023-05-30T05:01:26.656Z,16.48
2023-05-30T05:03:55.320Z,14.40
2023-05-30T05:06:23.693Z,15.02
2023-05-30T05:08:51.793Z,21.98
2023-05-30T05:11:20.036Z,13.75
2023-05-30T05:13:48.204Z,12.52
2023-05-30T05:16:16.358Z,13.82
2023-05-30T05:18:46.173Z,17.88
2023-05-30T05:21:16.279Z,11.10
2023-05-30T05:23:44.375Z,15.25
2023-05-30T05:26:12.778Z,18.17
2023-05-30T05:28:40.924Z,11.85
2023-05-30T05:31:09.142Z,13.45
2023-05-30T05:33:37.244Z,11.55
2023-05-30T05:36:08.064Z,10.75
2023-05-30T05:38:36.352Z,21.80
2023-05-30T05:41:04.444Z,11.32
2023-05-30T05:43:50.936Z,15.13
2023-05-30T05:46:19.072Z,12.13
2023-05-30T05:48:47.255Z,11.32
2023-05-30T05:51:16.863Z,18.10
2023-05-30T05:53:44.942Z,17.15
2023-05-30T05:56:13.275Z,16.08
2023-05-30T05:58:41.369Z,17.92
2023-05-30T06:01:09.560Z,13.48
2023-05-30T06:03:37.959Z,14.02
2023-05-30T06:06:07.513Z,15.43
2023-05-30T06:08:38.409Z,20.10
2023-05-30T06:11:06.856Z,12.85
2023-05-30T06:13:35.189Z,18.38
2023-05-30T06:16:03.422Z,17.58
2023-05-30T06:18:31.719Z,11.82
2023-05-30T06:21:00.080Z,16.05
2023-05-30T06:23:30.724Z,16.48
2023-05-30T06:26:00.376Z,13.45
2023-05-30T06:28:30.390Z,11.75
2023-05-30T06:30:58.963Z,14.52
2023-05-30T06:33:27.451Z,14.55
2023-05-30T06:35:55.636Z,9.13
2023-05-30T06:38:24.744Z,9.32
2023-05-30T06:40:52.829Z,11.15
2023-05-30T06:43:22.427Z,8.80
2023-05-30T06:45:50.742Z,6.07
2023-05-30T06:48:19.096Z,5.50
2023-05-30T06:50:47.193Z,16.40
2023-05-30T06:53:15.219Z,9.00
2023-05-30T06:55:43.845Z,8.27
2023-05-30T06:58:11.892Z,12.27
2023-05-30T07:00:41.689Z,8.20
2023-05-30T07:03:10.119Z,14.95
2023-05-30T07:05:38.800Z,13.25
2023-05-30T07:08:07.335Z,6.25
2023-05-30T07:10:35.901Z,9.38
2023-05-30T07:13:04.316Z,6.72
2023-05-30T07:15:32.654Z,7.72
2023-05-30T07:18:02.317Z,10.35
2023-05-30T07:20:30.861Z,10.30
2023-05-30T07:22:58.997Z,10.25
2023-05-30T07:25:45.582Z,6.60
2023-05-30T07:28:16.684Z,7.97
2023-05-30T07:30:46.846Z,10.70
2023-05-30T07:33:16.452Z,6.25
2023-05-30T07:35:44.899Z,11.93
2023-05-30T07:38:13.084Z,11.80
2023-05-30T07:40:41.120Z,9.95
2023-05-30T07:43:09.461Z,8.77
2023-05-30T07:45:38.425Z,8.60
2023-05-30T07:48:07.605Z,9.02
2023-05-30T07:50:37.053Z,12.13
2023-05-30T07:53:05.117Z,10.65
2023-05-30T07:55:33.575Z,10.85
2023-05-30T07:58:01.703Z,11.90
2023-05-30T08:00:30.614Z,8.95
2023-05-30T08:02:58.732Z,7.80
2023-05-30T08:05:26.994Z,10.23
2023-05-30T08:07:56.666Z,9.73
2023-05-30T08:10:24.904Z,9.20
2023-05-30T08:12:53.389Z,9.43
2023-05-30T08:15:21.602Z,11.13
2023-05-30T08:17:53.151Z,6.60
2023-05-30T08:20:21.483Z,10.40
2023-05-30T08:22:49.756Z,7.93
2023-05-30T08:25:22.283Z,9.07
2023-05-30T08:27:51.022Z,6.10
2023-05-30T08:30:19.361Z,11.05
2023-05-30T08:32:47.506Z,5.82
2023-05-30T08:35:15.910Z,6.50
2023-05-30T08:37:46.170Z,7.35
2023-05-30T08:40:16.432Z,7.65
2023-05-30T08:42:45.907Z,7.00
2023-05-30T08:45:14.081Z,4.25
2023-05-30T08:47:43.005Z,8.10
2023-05-30T08:50:12.927Z,4.78
2023-05-30T08:52:45.213Z,4.90
2023-05-30T08:55:15.863Z,5.07
2023-05-30T08:57:52.206Z,5.68
2023-05-30T09:00:20.876Z,5.35
2023-05-30T09:02:52.405Z,7.55
2023-05-30T09:05:21.163Z,8.23
2023-05-30T09:07:50.139Z,4.43
2023-05-30T09:10:18.692Z,5.25
2023-05-30T09:12:48.339Z,4.68
2023-05-30T09:15:16.631Z,3.38
2023-05-30T09:17:44.762Z,3.83
2023-05-30T09:20:18.619Z,6.07
2023-05-30T09:22:47.655Z,4.82
2023-05-30T09:25:16.869Z,3.25
2023-05-30T09:27:51.145Z,2.45
2023-05-30T09:30:20.690Z,3.92
2023-05-30T09:33:02.307Z,4.40
2023-05-30T09:35:30.892Z,3.58
2023-05-30T09:38:07.471Z,3.75
2023-05-30T09:40:37.948Z,4.40
2023-05-30T09:43:07.676Z,5.60
2023-05-30T09:45:35.744Z,1.92
2023-05-30T09:48:05.462Z,2.35
2023-05-30T09:50:33.592Z,5.53
2023-05-30T09:53:02.418Z,2.25
2023-05-30T09:55:31.011Z,2.58
2023-05-30T09:57:59.807Z,2.50
2023-05-30T10:00:30.450Z,3.83
2023-05-30T10:05:45.451Z,3.72
2023-05-30T10:08:14.662Z,1.92
2023-05-30T10:10:43.494Z,3.25
2023-05-30T10:13:11.619Z,1.90
2023-05-30T10:15:41.249Z,4.10
2023-05-30T10:18:12.092Z,2.17
2023-05-30T10:20:45.643Z,1.83
2023-05-30T10:23:15.565Z,1.23
2023-05-30T10:25:48.091Z,0.77
2023-05-30T10:28:19.732Z,1.20
2023-05-30T10:30:50.187Z,1.58
2023-05-30T10:33:30.089Z,1.52
2023-05-30T10:36:07.618Z,2.08
2023-05-30T10:38:44.531Z,2.53
2023-05-30T10:41:18.808Z,1.13
2023-05-30T10:43:57.847Z,3.03
2023-05-30T10:46:38.816Z,1.63
2023-05-30T10:49:09.469Z,2.65
2023-05-30T10:52:00.669Z,1.77
2023-05-30T10:54:35.081Z,1.02
2023-05-30T10:57:24.453Z,1.63
2023-05-30T10:59:54.925Z,1.35
2023-05-30T11:02:36.981Z,1.73
2023-05-30T11:05:09.491Z,1.33
2023-05-30T11:07:39.461Z,1.92
2023-05-30T11:10:12.956Z,1.42
2023-05-30T11:12:45.662Z,1.67
2023-05-30T11:15:17.432Z,3.00
2023-05-30T11:17:47.264Z,1.75
2023-05-30T11:20:18.064Z,1.13
2023-05-30T11:23:24.093Z,2.53
2023-05-30T11:25:55.261Z,0.93
2023-05-30T11:28:38.074Z,2.20
2023-05-30T11:31:20.854Z,3.00
2023-05-30T11:33:53.543Z,1.67
2023-05-30T11:36:23.286Z,0.75
2023-05-30T11:38:54.218Z,2.33
2023-05-30T11:41:24.111Z,3.35
2023-05-30T11:43:52.466Z,2.55
2023-05-30T11:46:21.380Z,5.65
2023-05-30T11:48:51.173Z,1.83
2023-05-30T11:51:19.493Z,1.70
2023-05-30T11:53:48.130Z,1.67
2023-05-30T11:56:22.368Z,1.75
2023-05-30T12:01:20.296Z,1.40
2023-05-30T12:03:49.998Z,0.77
2023-05-30T12:06:19.546Z,1.33
2023-05-30T12:08:48.541Z,1.52
2023-05-30T12:11:17.782Z,2.55
2023-05-30T12:13:47.190Z,1.42
2023-05-30T12:16:15.906Z,0.80
2023-05-30T12:18:44.063Z,1.95
2023-05-30T12:21:14.651Z,3.90
2023-05-30T12:23:45.261Z,1.05
2023-05-30T12:26:20.516Z,1.48
2023-05-30T12:28:50.675Z,0.82
2023-05-30T12:31:23.669Z,1.42
2023-05-30T12:33:51.859Z,0.88
2023-05-30T12:38:56.758Z,1.90
2023-05-30T12:41:29.663Z,1.95
2023-05-30T12:43:57.775Z,5.53
2023-05-30T12:46:27.950Z,1.30
2023-05-30T12:48:56.242Z,2.30
2023-05-30T12:51:25.657Z,1.35
2023-05-30T12:53:54.893Z,2.78
2023-05-30T12:56:23.128Z,4.55
2023-05-30T12:58:51.549Z,2.92
2023-05-30T13:01:20.003Z,1.38
2023-05-30T13:03:49.399Z,1.10
2023-05-30T13:06:17.776Z,2.58
2023-05-30T13:08:47.205Z,2.95
2023-05-30T13:11:15.490Z,1.00
2023-05-30T13:13:43.900Z,1.67
2023-05-30T13:16:12.039Z,1.65
2023-05-30T13:18:40.402Z,1.35
2023-05-30T13:21:08.651Z,1.33
2023-05-30T13:23:36.996Z,1.48
2023-05-30T13:26:06.628Z,1.63
2023-05-30T13:28:37.048Z,1.80
2023-05-30T13:31:05.761Z,1.00
2023-05-30T13:33:34.691Z,3.63
2023-05-30T13:36:02.786Z,2.83
2023-05-30T13:38:31.180Z,1.58
2023-05-30T13:41:00.111Z,1.13
2023-05-30T13:43:30.245Z,1.75
2023-05-30T13:45:58.690Z,1.88
2023-05-30T13:48:26.945Z,2.80
2023-05-30T13:50:55.395Z,1.60
2023-05-30T13:53:30.207Z,0.90
2023-05-30T13:56:04.374Z,0.80
2023-05-30T13:58:36.502Z,1.77
2023-05-30T14:01:05.227Z,1.55
2023-05-30T14:03:34.118Z,1.75
2023-05-30T14:06:02.956Z,1.92
2023-05-30T14:08:31.815Z,2.10
2023-05-30T14:11:01.772Z,0.68
2023-05-30T14:13:30.221Z,4.93
2023-05-30T14:16:00.012Z,1.08
2023-05-30T14:18:28.309Z,4.25
2023-05-30T14:20:56.499Z,1.38
2023-05-30T14:23:24.757Z,3.20
2023-05-30T14:25:52.951Z,1.33
2023-05-30T14:28:23.082Z,2.83
2023-05-30T14:30:51.531Z,5.38
2023-05-30T14:33:21.265Z,1.17
2023-05-30T14:35:49.519Z,1.88
2023-05-30T14:38:17.709Z,2.20
2023-05-30T14:40:46.400Z,1.52
2023-05-30T14:43:17.487Z,1.20
2023-05-30T14:45:48.034Z,1.48
2023-05-30T14:48:17.835Z,3.28
2023-05-30T14:50:47.648Z,1.45
2023-05-30T14:53:15.952Z,1.58
2023-05-30T14:55:44.668Z,1.67
2023-05-30T14:58:13.268Z,1.95
2023-05-30T15:00:41.432Z,7.05
2023-05-30T15:03:10.145Z,3.85
2023-05-30T15:05:38.477Z,2.55
2023-05-30T15:08:08.245Z,4.07
2023-05-30T15:10:36.343Z,9.30
2023-05-30T15:13:04.612Z,3.83
2023-05-30T15:15:32.990Z,2.53
2023-05-30T15:18:01.711Z,2.22
2023-05-30T15:20:30.099Z,1.58
2023-05-30T15:22:58.492Z,1.73
2023-05-30T15:25:28.092Z,2.53
2023-05-30T15:27:57.374Z,3.25
2023-05-30T15:30:26.541Z,5.82
2023-05-30T15:32:56.666Z,5.15
2023-05-30T15:35:24.758Z,1.17
2023-05-30T15:37:52.965Z,3.08
2023-05-30T15:40:21.310Z,3.13
2023-05-30T15:42:50.838Z,1.52
2023-05-30T15:45:19.092Z,3.83
2023-05-30T15:47:47.248Z,1.92
2023-05-30T15:50:18.919Z,3.28
2023-05-30T15:52:47.029Z,1.92
2023-05-30T15:55:15.245Z,2.50
2023-05-30T15:57:43.522Z,2.38
2023-05-30T16:00:14.806Z,2.55
2023-05-30T16:02:43.159Z,2.15
2023-05-30T16:05:11.829Z,2.05
2023-05-30T16:07:40.007Z,4.28
2023-05-30T16:10:09.458Z,3.13
2023-05-30T16:12:37.859Z,3.30
2023-05-30T16:15:07.430Z,3.22
2023-05-30T16:17:37.463Z,4.15
2023-05-30T16:20:06.733Z,3.30
2023-05-30T16:22:36.930Z,1.80
2023-05-30T16:25:05.861Z,2.35
2023-05-30T16:27:34.000Z,3.30
2023-05-30T16:30:02.249Z,2.08
2023-05-30T16:32:30.547Z,2.60
2023-05-30T16:35:00.013Z,2.67
2023-05-30T16:37:28.297Z,2.70
2023-05-30T16:39:56.925Z,4.78
2023-05-30T16:42:25.175Z,6.65
2023-05-30T16:44:53.458Z,6.55
2023-05-30T16:47:22.168Z,6.63
2023-05-30T16:49:51.100Z,4.30
2023-05-30T16:52:20.692Z,5.05
2023-05-30T16:54:51.696Z,2.08
2023-05-30T16:57:19.874Z,2.45
2023-05-30T16:59:48.345Z,3.15
2023-05-30T17:02:16.699Z,3.50
2023-05-30T17:04:44.827Z,2.40
2023-05-30T17:07:13.878Z,3.38
2023-05-30T17:09:43.630Z,4.53
2023-05-30T17:12:12.088Z,4.03
2023-05-30T17:14:40.185Z,2.55
2023-05-30T17:17:08.780Z,3.05
2023-05-30T17:19:36.884Z,3.42
2023-05-30T17:22:05.303Z,3.92
2023-05-30T17:24:33.456Z,3.08
2023-05-30T17:27:05.875Z,3.15
2023-05-30T17:29:34.118Z,4.75
2023-05-30T17:32:02.382Z,4.25
2023-05-30T17:34:30.715Z,2.50
2023-05-30T17:36:58.790Z,2.53
2023-05-30T17:39:27.097Z,3.45
2023-05-30T17:41:55.368Z,2.60
2023-05-30T17:44:24.950Z,5.93
2023-05-30T17:46:53.012Z,2.97
2023-05-30T17:49:21.493Z,4.00
2023-05-30T17:51:49.557Z,2.92
2023-05-30T17:54:17.798Z,3.75
2023-05-30T17:56:46.144Z,6.93
2023-05-30T17:59:14.419Z,4.80
2023-05-30T18:01:44.240Z,4.65
2023-05-30T18:04:12.565Z,5.60
2023-05-30T18:06:40.863Z,3.30
2023-05-30T18:09:10.741Z,4.82
2023-05-30T18:11:39.081Z,6.05
2023-05-30T18:14:07.832Z,5.22
2023-05-30T18:16:36.225Z,6.90
2023-05-30T18:19:05.891Z,5.10
2023-05-30T18:21:35.120Z,5.50
2023-05-30T18:24:05.880Z,5.85
2023-05-30T18:26:34.002Z,7.47
2023-05-30T18:29:02.249Z,6.25
2023-05-30T18:31:30.376Z,8.60
2023-05-30T18:33:58.560Z,4.35
2023-05-30T18:36:28.084Z,7.40
2023-05-30T18:38:58.853Z,5.93
2023-05-30T18:41:27.925Z,7.13
2023-05-30T18:43:56.366Z,7.13
2023-05-30T18:46:24.709Z,5.38
2023-05-30T18:48:54.691Z,5.70
2023-05-30T18:51:23.360Z,7.60
2023-05-30T18:53:53.107Z,6.20
2023-05-30T18:56:24.067Z,7.47
2023-05-30T18:58:54.129Z,8.50
2023-05-30T19:01:22.323Z,6.30
2023-05-30T19:03:51.818Z,7.25
2023-05-30T19:06:20.036Z,6.97
2023-05-30T19:08:49.032Z,7.18
2023-05-30T19:11:18.780Z,7.90
2023-05-30T19:13:46.948Z,11.40
2023-05-30T19:16:15.142Z,9.75
2023-05-30T19:18:43.305Z,7.35
2023-05-30T19:21:13.236Z,8.90
2023-05-30T19:23:41.377Z,9.68
2023-05-30T19:26:09.672Z,7.45
2023-05-30T19:28:41.032Z,6.72
2023-05-30T19:31:15.102Z,8.20
2023-05-30T19:33:44.224Z,7.75
2023-05-30T19:36:12.420Z,16.85
2023-05-30T19:38:42.287Z,22.95
2023-05-30T19:41:10.702Z,11.52
2023-05-30T19:43:40.455Z,7.75
2023-05-30T19:46:11.678Z,7.88
2023-05-30T19:48:40.051Z,7.45
2023-05-30T19:51:08.309Z,7.68
2023-05-30T19:53:36.530Z,6.38
2023-05-30T19:56:05.998Z,7.20
2023-05-30T19:58:34.203Z,7.03
2023-05-30T20:01:04.219Z,11.48
2023-05-30T20:03:32.879Z,8.60
2023-05-30T20:06:01.548Z,10.85
2023-05-30T20:08:31.591Z,7.88
2023-05-30T20:11:00.594Z,8.77
2023-05-30T20:13:29.816Z,8.10
2023-05-30T20:15:58.041Z,8.75
2023-05-30T20:18:27.508Z,8.63
2023-05-30T20:20:55.932Z,9.05
2023-05-30T20:23:24.200Z,9.90
2023-05-30T20:25:52.367Z,6.90
2023-05-30T20:28:20.592Z,8.25
2023-05-30T20:30:48.841Z,10.15
2023-05-30T20:33:17.272Z,9.40
2023-05-30T20:35:46.908Z,8.77
2023-05-30T20:38:15.242Z,9.10
2023-05-30T20:40:43.295Z,8.95
2023-05-30T20:43:11.705Z,10.95
2023-05-30T20:45:39.948Z,8.55
2023-05-30T20:48:09.056Z,8.38
2023-05-30T20:50:37.141Z,8.50
2023-05-30T20:53:09.122Z,9.07
2023-05-30T20:55:37.419Z,7.97
2023-05-30T20:58:07.644Z,9.32
2023-05-30T21:00:35.784Z,13.45
2023-05-30T21:03:03.898Z,12.20
2023-05-30T21:05:32.333Z,8.73
2023-05-30T21:08:00.406Z,11.07
2023-05-30T21:10:30.218Z,10.27
2023-05-30T21:12:58.295Z,9.80
2023-05-30T21:15:27.876Z,10.05
2023-05-30T21:17:56.308Z,11.02
2023-05-30T21:20:25.244Z,10.52
2023-05-30T21:22:55.430Z,11.02
2023-05-30T21:25:24.048Z,10.98
2023-05-30T21:27:53.689Z,9.57
2023-05-30T21:30:24.196Z,11.70
2023-05-30T21:32:53.616Z,13.55
2023-05-30T21:35:21.900Z,11.25
2023-05-30T21:37:50.049Z,14.07
2023-05-30T21:40:18.270Z,10.65
2023-05-30T21:42:46.535Z,12.18
2023-05-30T21:45:16.151Z,10.43
2023-05-30T21:47:44.533Z,12.40
2023-05-30T21:50:12.870Z,11.65
2023-05-30T21:52:41.251Z,8.73
2023-05-30T21:55:10.426Z,16.10
2023-05-30T21:57:38.640Z,13.57
2023-05-30T22:00:12.035Z,11.02
2023-05-30T22:03:05.076Z,16.83
2023-05-30T22:05:33.368Z,14.15
2023-05-30T22:08:01.517Z,14.43
2023-05-30T22:10:29.902Z,16.58
2023-05-30T22:12:58.125Z,13.82
2023-05-30T22:15:26.412Z,15.73
2023-05-30T22:17:56.013Z,16.45
2023-05-30T22:20:24.490Z,12.88
2023-05-30T22:22:52.649Z,15.40
2023-05-30T22:25:21.565Z,13.60
2023-05-30T22:27:49.697Z,15.10
2023-05-30T22:30:18.094Z,19.10
2023-05-30T22:32:46.287Z,17.83
2023-05-30T22:35:16.125Z,18.77
2023-05-30T22:37:45.957Z,18.35
2023-05-30T22:40:14.409Z,17.13
2023-05-30T22:42:42.820Z,16.52
2023-05-30T22:45:11.590Z,22.80
2023-05-30T22:47:39.897Z,15.90
2023-05-30T22:50:09.215Z,22.73
2023-05-30T22:52:38.712Z,21.60
2023-05-30T22:55:07.532Z,18.35
2023-05-30T22:57:35.654Z,16.83
2023-05-30T23:00:05.241Z,21.25
2023-05-30T23:02:33.430Z,19.52
2023-05-30T23:05:02.190Z,21.48
2023-05-30T23:07:30.437Z,18.73
2023-05-30T23:10:00.179Z,21.60
2023-05-30T23:12:28.578Z,16.33
2023-05-30T23:14:56.664Z,20.90
2023-05-30T23:17:25.058Z,20.83
2023-05-30T23:19:53.197Z,21.70
2023-05-30T23:22:21.555Z,18.63
2023-05-30T23:24:49.644Z,19.35
2023-05-30T23:27:19.423Z,17.25
2023-05-30T23:29:47.524Z,18.05
2023-05-30T23:32:16.475Z,20.27
2023-05-30T23:34:44.773Z,21.15
2023-05-30T23:37:14.327Z,20.05
2023-05-30T23:39:42.748Z,29.10
2023-05-30T23:42:11.127Z,47.60
2023-05-30T23:44:40.531Z,49.78
2023-05-30T23:47:09.463Z,25.48
2023-05-30T23:49:39.381Z,21.08
2023-05-30T23:52:08.374Z,22.08
2023-05-30T23:54:39.094Z,19.80
2023-05-30T23:57:09.922Z,18.48
2023-05-30T23:59:39.931Z,19.63
